Time;durP1;ratioP1;P1;durP2;ratioP2;P2;SDS_P1;SDS_P2;PMS_P1;PMS_P2;Temp;Humidity;BMP_temperature;BMP_pressure;BME280_temperature;BME280_humidity;BME280_pressure;Samples;Min_cycle;Max_cycle;Signal;HPM_P1;HPM_P2
2021/01/24 00:01:31;;;;;;;29.67;20.42;;;2.90;84.40;;;;;;5044494;28;20030;-61
2021/01/24 00:03:57;;;;;;;25.92;18.48;;;2.90;84.00;;;;;;5039242;28;20037;-61
2021/01/24 00:06:22;;;;;;;22.80;17.25;;;2.90;83.90;;;;;;5040058;28;20017;-59
2021/01/24 00:08:48;;;;;;;24.85;18.08;;;2.80;84.10;;;;;;5050630;28;20036;-61
2021/01/24 00:11:13;;;;;;;24.67;18.67;;;2.80;84.20;;;;;;5051342;28;20530;-60
2021/01/24 00:13:39;;;;;;;22.58;16.98;;;2.80;84.10;;;;;;5039694;28;20395;-60
2021/01/24 00:16:05;;;;;;;25.30;16.92;;;2.90;83.90;;;;;;5037136;28;20033;-60
2021/01/24 00:18:30;;;;;;;24.73;17.90;;;2.90;83.80;;;;;;5050628;28;20083;-60
2021/01/24 00:20:56;;;;;;;25.38;17.92;;;2.80;83.80;;;;;;5036907;28;20496;-60
2021/01/24 00:23:21;;;;;;;25.08;17.90;;;2.80;84.10;;;;;;5047413;28;20534;-60
2021/01/24 00:25:47;;;;;;;26.33;17.55;;;2.80;83.70;;;;;;5046577;28;20033;-59
2021/01/24 00:28:19;;;;;;;23.13;17.50;;;2.80;83.50;;;;;;5037832;28;20036;-61
2021/01/24 00:30:44;;;;;;;25.25;17.27;;;2.70;83.80;;;;;;5050672;28;20056;-61
2021/01/24 00:33:10;;;;;;;25.50;17.60;;;2.70;84.10;;;;;;5042357;28;20130;-60
2021/01/24 00:35:36;;;;;;;22.23;17.20;;;2.60;84.30;;;;;;5053106;28;20037;-59
2021/01/24 00:38:02;;;;;;;23.50;17.60;;;2.60;84.00;;;;;;5037354;28;20033;-60
2021/01/24 00:40:27;;;;;;;23.45;17.75;;;2.50;84.70;;;;;;5054541;28;20056;-60
2021/01/24 00:42:53;;;;;;;24.58;17.55;;;2.50;84.50;;;;;;5054757;28;20392;-60
2021/01/24 00:45:19;;;;;;;26.27;19.23;;;2.40;84.80;;;;;;5054617;28;20049;-60
2021/01/24 00:47:45;;;;;;;25.75;18.85;;;2.40;85.20;;;;;;5054912;28;20121;-60
2021/01/24 00:50:11;;;;;;;26.55;18.08;;;2.30;85.40;;;;;;5051093;28;20060;-59
2021/01/24 00:52:36;;;;;;;24.65;18.15;;;2.40;85.20;;;;;;5036747;28;20067;-60
2021/01/24 00:55:02;;;;;;;25.25;17.65;;;2.40;84.40;;;;;;5054122;28;20029;-59
2021/01/24 00:57:28;;;;;;;25.65;18.42;;;2.30;84.60;;;;;;5054410;28;20369;-60
2021/01/24 00:59:53;;;;;;;23.85;18.80;;;2.30;85.00;;;;;;5036175;28;20041;-61
2021/01/24 01:02:19;;;;;;;25.95;18.63;;;2.20;85.30;;;;;;5054771;28;20037;-60
2021/01/24 01:04:44;;;;;;;24.42;18.83;;;2.20;85.50;;;;;;5054447;28;20040;-59
2021/01/24 01:07:10;;;;;;;23.98;17.90;;;2.20;85.70;;;;;;5054226;28;20036;-59
2021/01/24 01:09:36;;;;;;;24.98;18.38;;;2.20;85.30;;;;;;5051110;28;20033;-60
2021/01/24 01:12:04;;;;;;;24.85;18.60;;;2.20;85.60;;;;;;5054399;28;20048;-60
2021/01/24 01:14:29;;;;;;;24.30;18.25;;;2.20;85.60;;;;;;5053759;28;20037;-60
2021/01/24 01:16:55;;;;;;;25.55;18.35;;;2.10;85.50;;;;;;5053802;28;20049;-59
2021/01/24 01:19:21;;;;;;;26.42;18.35;;;2.00;85.40;;;;;;5054324;28;20150;-59
2021/01/24 01:21:46;;;;;;;23.75;18.10;;;1.90;86.30;;;;;;5053995;28;20036;-60
2021/01/24 01:24:12;;;;;;;26.25;18.50;;;2.00;86.10;;;;;;5054020;28;20040;-59
2021/01/24 01:26:37;;;;;;;28.13;19.02;;;2.10;85.40;;;;;;5055245;28;20044;-59
2021/01/24 01:29:03;;;;;;;26.55;18.75;;;2.00;85.90;;;;;;5055510;28;20048;-60
2021/01/24 01:31:28;;;;;;;28.50;20.00;;;1.80;86.10;;;;;;5056046;28;20112;-59
2021/01/24 01:33:54;;;;;;;28.42;19.20;;;1.80;86.80;;;;;;5054278;28;20452;-58
2021/01/24 01:36:20;;;;;;;26.63;20.27;;;1.80;86.50;;;;;;5053940;28;20037;-58
2021/01/24 01:38:45;;;;;;;24.38;19.02;;;1.80;86.50;;;;;;5034978;28;20646;-60
2021/01/24 01:41:11;;;;;;;27.40;19.85;;;1.90;86.50;;;;;;5035105;28;20048;-59
2021/01/24 01:43:36;;;;;;;27.27;18.90;;;2.00;86.30;;;;;;5052979;28;20514;-60
2021/01/24 01:46:03;;;;;;;25.58;18.25;;;2.00;86.30;;;;;;5053353;28;20502;-60
2021/01/24 01:48:30;;;;;;;24.85;18.85;;;2.00;85.90;;;;;;5052961;28;20033;-60
2021/01/24 01:50:56;;;;;;;27.50;19.33;;;2.00;85.60;;;;;;5031585;28;20119;-60
2021/01/24 01:53:22;;;;;;;24.52;18.73;;;2.10;85.60;;;;;;5052362;28;20678;-60
2021/01/24 01:55:47;;;;;;;26.15;19.30;;;2.10;85.50;;;;;;5053520;28;20033;-57
2021/01/24 01:58:13;;;;;;;26.85;19.40;;;2.10;85.60;;;;;;5035610;28;20531;-59
2021/01/24 02:00:39;;;;;;;26.38;19.23;;;2.10;85.30;;;;;;5052662;28;20447;-59
2021/01/24 02:03:27;;;;;;;28.38;18.88;;;2.20;85.40;;;;;;5055240;28;20044;-59
2021/01/24 02:06:08;;;;;;;27.55;19.65;;;2.10;85.30;;;;;;5052415;28;20108;-58
2021/01/24 02:09:06;;;;;;;26.60;20.25;;;1.90;85.40;;;;;;5052102;28;20041;-59
2021/01/24 02:11:43;;;;;;;30.20;20.65;;;1.90;86.40;;;;;;5006137;28;20060;-58
2021/01/24 02:14:29;;;;;;;28.58;20.38;;;1.80;86.50;;;;;;5048190;28;20503;-60
2021/01/24 02:16:58;;;;;;;27.77;19.27;;;1.70;86.60;;;;;;5048313;28;20045;-60
2021/01/24 02:19:37;;;;;;;25.65;18.88;;;1.70;87.50;;;;;;5056509;28;20036;-59
2021/01/24 02:22:03;;;;;;;27.25;19.77;;;1.70;86.90;;;;;;5052961;28;20036;-60
2021/01/24 02:24:34;;;;;;;25.42;18.85;;;1.70;86.90;;;;;;5053523;28;20377;-61
2021/01/24 02:27:17;;;;;;;24.75;19.15;;;1.80;86.50;;;;;;5052274;28;20194;-62
2021/01/24 02:30:18;;;;;;;26.25;18.40;;;1.80;86.00;;;;;;5041878;28;20041;-61
2021/01/24 02:32:47;;;;;;;26.60;19.02;;;1.80;86.40;;;;;;5051986;28;20213;-59
2021/01/24 02:35:14;;;;;;;26.42;18.80;;;1.70;86.70;;;;;;5050144;28;20420;-60
2021/01/24 02:37:41;;;;;;;26.60;19.00;;;1.70;87.00;;;;;;5048842;28;20506;-58
2021/01/24 02:40:09;;;;;;;27.23;20.02;;;1.70;87.10;;;;;;5030977;28;20042;-60
2021/01/24 02:42:36;;;;;;;27.38;19.60;;;1.80;87.00;;;;;;5039701;28;20130;-58
2021/01/24 02:45:04;;;;;;;27.85;18.75;;;1.80;86.70;;;;;;5051802;28;20142;-58
2021/01/24 02:47:30;;;;;;;24.98;18.35;;;1.90;86.40;;;;;;5052037;28;20657;-59
2021/01/24 02:49:58;;;;;;;23.27;18.58;;;1.90;85.90;;;;;;5033617;28;20041;-59
2021/01/24 02:52:26;;;;;;;25.08;18.27;;;1.90;85.90;;;;;;5038459;28;20086;-60
2021/01/24 02:54:52;;;;;;;24.33;18.00;;;1.90;85.80;;;;;;5051502;28;20078;-59
2021/01/24 02:57:18;;;;;;;25.42;18.52;;;1.90;86.10;;;;;;5052842;28;20086;-59
2021/01/24 02:59:44;;;;;;;24.42;18.83;;;2.00;85.70;;;;;;5052432;28;20438;-60
2021/01/24 03:02:10;;;;;;;24.67;18.17;;;2.10;85.50;;;;;;5052906;28;20037;-60
2021/01/24 03:04:36;;;;;;;25.92;18.17;;;2.10;85.40;;;;;;5043831;28;20103;-60
2021/01/24 03:07:01;;;;;;;23.52;17.90;;;2.30;84.80;;;;;;5050468;28;20704;-60
2021/01/24 03:09:27;;;;;;;25.63;18.67;;;2.20;84.20;;;;;;5019380;28;20408;-60
2021/01/24 03:11:54;;;;;;;24.13;17.02;;;2.20;84.30;;;;;;5052676;28;20491;-61
2021/01/24 03:14:25;;;;;;;23.33;17.30;;;2.20;84.80;;;;;;5052238;28;21143;-60
2021/01/24 03:16:56;;;;;;;22.10;16.80;;;2.20;84.80;;;;;;5052061;28;20380;-60
2021/01/24 03:19:25;;;;;;;20.13;15.85;;;2.30;84.60;;;;;;5032551;28;20134;-60
2021/01/24 03:21:52;;;;;;;22.20;16.95;;;2.30;84.40;;;;;;5015120;28;20030;-59
2021/01/24 03:24:20;;;;;;;23.13;16.80;;;2.30;84.40;;;;;;5053229;28;20090;-61
2021/01/24 03:26:46;;;;;;;23.63;17.45;;;2.40;84.20;;;;;;5053580;28;20029;-60
2021/01/24 03:29:12;;;;;;;23.33;18.42;;;2.40;83.80;;;;;;5051507;28;20391;-59
2021/01/24 03:31:42;;;;;;;24.60;17.95;;;2.30;84.80;;;;;;5051614;28;20033;-60
2021/01/24 03:34:18;;;;;;;23.13;17.33;;;2.30;84.40;;;;;;5051530;28;20041;-60
2021/01/24 03:36:45;;;;;;;23.48;16.30;;;2.20;84.30;;;;;;5033667;28;20387;-61
2021/01/24 03:39:11;;;;;;;25.25;18.55;;;2.20;84.50;;;;;;5051387;28;20415;-59
2021/01/24 03:41:36;;;;;;;25.58;18.75;;;2.10;85.00;;;;;;5051528;28;20137;-59
2021/01/24 03:44:02;;;;;;;27.15;18.92;;;2.10;85.10;;;;;;5051394;28;20139;-60
2021/01/24 03:46:28;;;;;;;26.08;19.17;;;2.10;84.90;;;;;;5051569;28;20382;-60
2021/01/24 03:48:53;;;;;;;25.60;19.80;;;2.10;85.50;;;;;;5051722;28;20480;-60
2021/01/24 03:51:19;;;;;;;25.95;18.95;;;2.10;85.30;;;;;;5039007;28;20043;-60
2021/01/24 03:53:44;;;;;;;24.15;18.77;;;2.20;85.30;;;;;;5042762;28;20045;-59
2021/01/24 03:56:10;;;;;;;23.40;19.13;;;2.20;85.30;;;;;;5050803;28;20035;-58
2021/01/24 03:58:35;;;;;;;27.60;20.27;;;2.30;85.10;;;;;;5051398;28;20033;-60
2021/01/24 04:01:01;;;;;;;26.83;20.02;;;2.30;84.70;;;;;;5051492;28;20059;-57
2021/01/24 04:03:27;;;;;;;26.55;19.15;;;2.30;84.60;;;;;;5051217;28;20107;-60
2021/01/24 04:05:52;;;;;;;24.45;19.00;;;2.30;84.50;;;;;;5033343;28;20036;-62
2021/01/24 04:08:18;;;;;;;23.40;18.70;;;2.40;84.40;;;;;;5051233;28;20519;-56
2021/01/24 04:10:43;;;;;;;23.40;18.52;;;2.30;84.40;;;;;;5049084;28;20060;-58
2021/01/24 04:13:09;;;;;;;25.00;20.00;;;2.40;84.50;;;;;;5051394;28;20032;-60
2021/01/24 04:15:34;;;;;;;24.58;19.38;;;2.30;84.60;;;;;;5049288;28;20164;-60
2021/01/24 04:18:00;;;;;;;23.55;18.85;;;2.30;84.90;;;;;;5051331;28;20091;-59
2021/01/24 04:20:25;;;;;;;23.92;18.95;;;2.30;84.70;;;;;;5051268;28;20033;-60
2021/01/24 04:22:51;;;;;;;26.02;19.83;;;2.30;84.20;;;;;;5051201;28;20439;-59
2021/01/24 04:25:18;;;;;;;26.67;20.70;;;2.20;84.70;;;;;;5033250;28;20500;-59
2021/01/24 04:27:45;;;;;;;27.98;21.13;;;2.20;85.00;;;;;;5051439;28;20025;-59
2021/01/24 04:30:11;;;;;;;26.90;20.52;;;2.20;85.00;;;;;;5051030;28;20060;-59
2021/01/24 04:32:36;;;;;;;27.77;21.02;;;2.00;85.40;;;;;;5051389;28;20029;-59
2021/01/24 04:35:03;;;;;;;27.85;21.55;;;2.00;85.60;;;;;;5050649;28;20399;-59
2021/01/24 04:37:29;;;;;;;25.55;20.58;;;2.00;85.80;;;;;;5051413;28;20090;-60
2021/01/24 04:39:55;;;;;;;30.20;22.05;;;2.10;85.60;;;;;;5051033;28;20041;-60
2021/01/24 04:42:20;;;;;;;32.38;22.70;;;2.00;85.60;;;;;;5051292;28;20032;-59
2021/01/24 04:44:46;;;;;;;31.50;23.38;;;2.00;86.00;;;;;;5050612;28;20040;-57
2021/01/24 04:47:13;;;;;;;31.90;22.83;;;1.90;86.10;;;;;;5051171;28;20643;-57
2021/01/24 04:49:39;;;;;;;28.70;22.00;;;1.80;86.50;;;;;;5050696;28;20388;-56
2021/01/24 04:52:06;;;;;;;34.15;24.38;;;1.90;86.50;;;;;;5050928;28;20037;-59
2021/01/24 04:54:32;;;;;;;31.30;23.67;;;1.90;86.60;;;;;;5050374;28;20044;-58
2021/01/24 04:56:58;;;;;;;31.05;23.35;;;1.90;86.00;;;;;;5034081;28;20060;-58
2021/01/24 04:59:24;;;;;;;30.08;21.13;;;1.90;86.40;;;;;;5052056;28;20053;-58
2021/01/24 05:01:50;;;;;;;27.52;20.38;;;1.90;86.60;;;;;;5054477;28;20504;-61
2021/01/24 05:04:17;;;;;;;31.33;22.33;;;1.90;86.40;;;;;;5051729;28;20040;-55
2021/01/24 05:06:43;;;;;;;31.48;21.80;;;1.90;86.70;;;;;;5050958;28;20491;-56
2021/01/24 05:09:08;;;;;;;30.33;23.25;;;2.00;86.50;;;;;;5050231;28;20044;-58
2021/01/24 05:11:34;;;;;;;30.65;21.77;;;2.00;86.10;;;;;;5050980;28;20027;-59
2021/01/24 05:14:17;;;;;;;31.90;22.65;;;2.10;85.90;;;;;;5050644;28;20079;-59
2021/01/24 05:16:43;;;;;;;31.58;22.55;;;2.00;85.90;;;;;;5050852;28;20112;-57
2021/01/24 05:19:09;;;;;;;34.75;24.00;;;1.90;86.30;;;;;;5053901;28;20116;-58
2021/01/24 05:21:37;;;;;;;32.33;22.85;;;2.00;86.10;;;;;;5036826;28;20120;-56
2021/01/24 05:24:06;;;;;;;34.03;22.88;;;2.00;86.00;;;;;;5053706;28;20029;-58
2021/01/24 05:26:32;;;;;;;30.13;21.50;;;2.10;86.20;;;;;;5054882;28;20483;-56
2021/01/24 05:28:57;;;;;;;30.05;21.45;;;2.00;86.10;;;;;;5051761;28;20033;-59
2021/01/24 05:31:23;;;;;;;32.95;22.65;;;2.00;86.10;;;;;;5054904;28;20036;-56
2021/01/24 05:33:49;;;;;;;33.05;21.65;;;1.90;86.90;;;;;;5054160;28;20037;-56
2021/01/24 05:36:15;;;;;;;32.75;22.58;;;2.00;86.70;;;;;;5054376;28;20025;-57
2021/01/24 05:38:40;;;;;;;34.67;23.33;;;1.90;86.80;;;;;;5054497;28;20545;-57
2021/01/24 05:41:09;;;;;;;30.80;23.35;;;1.80;87.60;;;;;;5054009;28;20030;-58
2021/01/24 05:43:44;;;;;;;31.23;22.85;;;1.80;87.60;;;;;;5053890;28;20373;-59
2021/01/24 05:46:11;;;;;;;31.10;21.90;;;1.90;87.20;;;;;;5054001;28;20392;-56
2021/01/24 05:48:46;;;;;;;32.00;21.70;;;1.90;87.00;;;;;;5053793;28;20032;-55
2021/01/24 05:51:14;;;;;;;31.30;21.63;;;2.00;87.10;;;;;;5053649;28;20041;-58
2021/01/24 05:53:44;;;;;;;32.03;21.00;;;2.00;86.80;;;;;;5053535;28;20029;-56
2021/01/24 05:56:11;;;;;;;31.95;21.17;;;2.10;86.90;;;;;;5053756;28;20466;-55
2021/01/24 05:58:39;;;;;;;30.85;20.25;;;2.10;86.70;;;;;;5053767;28;20021;-59
2021/01/24 06:01:05;;;;;;;29.65;20.83;;;2.10;86.70;;;;;;5053589;28;20040;-61
2021/01/24 06:03:33;;;;;;;29.98;20.33;;;2.20;86.60;;;;;;5053637;28;20095;-57
2021/01/24 06:05:58;;;;;;;30.35;21.40;;;2.10;86.90;;;;;;5053631;28;20029;-60
2021/01/24 06:08:24;;;;;;;31.23;20.80;;;2.10;86.70;;;;;;5053933;28;20035;-55
2021/01/24 06:10:51;;;;;;;31.38;20.77;;;2.10;86.80;;;;;;5051246;28;20042;-59
2021/01/24 06:13:27;;;;;;;31.98;21.10;;;2.10;87.00;;;;;;5053756;28;20487;-61
2021/01/24 06:15:54;;;;;;;32.25;20.65;;;2.00;87.10;;;;;;5052752;28;20041;-59
2021/01/24 06:18:43;;;;;;;31.05;20.80;;;2.00;87.40;;;;;;5053347;28;20117;-62
2021/01/24 06:21:15;;;;;;;30.60;21.00;;;2.00;87.40;;;;;;5052388;28;20434;-60
2021/01/24 06:24:11;;;;;;;29.80;19.75;;;2.10;87.20;;;;;;5053188;28;20195;-59
2021/01/24 06:26:39;;;;;;;29.60;19.13;;;2.10;87.70;;;;;;5015889;28;20458;-59
2021/01/24 06:29:07;;;;;;;30.45;19.33;;;2.10;87.70;;;;;;5053461;28;20040;-58
2021/01/24 06:31:33;;;;;;;30.45;20.10;;;2.10;88.00;;;;;;5053113;28;20506;-59
2021/01/24 06:34:08;;;;;;;35.95;20.67;;;2.10;87.70;;;;;;5053121;28;20025;-57
2021/01/24 06:36:38;;;;;;;31.55;20.38;;;2.10;87.30;;;;;;5052665;28;20029;-57
2021/01/24 06:39:05;;;;;;;34.58;20.98;;;2.10;88.00;;;;;;5053366;28;20021;-57
2021/01/24 06:41:46;;;;;;;31.85;21.77;;;2.10;87.90;;;;;;5052984;28;20055;-57
2021/01/24 06:44:38;;;;;;;32.13;21.23;;;2.20;87.80;;;;;;5053253;28;20056;-57
2021/01/24 06:47:28;;;;;;;32.63;20.38;;;2.20;87.70;;;;;;5051982;28;20037;-60
2021/01/24 06:49:53;;;;;;;33.88;21.23;;;2.10;88.00;;;;;;5038932;28;20064;-61
2021/01/24 06:52:23;;;;;;;34.72;21.80;;;2.10;88.40;;;;;;5035033;28;20077;-57
2021/01/24 06:54:50;;;;;;;35.17;21.70;;;2.10;88.50;;;;;;5036162;28;20033;-61
2021/01/24 06:57:17;;;;;;;34.17;21.83;;;2.10;88.70;;;;;;5054589;28;20060;-61
2021/01/24 06:59:43;;;;;;;36.47;21.63;;;2.10;88.70;;;;;;5053902;28;20040;-58
2021/01/24 07:02:38;;;;;;;32.97;21.02;;;2.10;88.70;;;;;;5052983;28;20396;-55
2021/01/24 07:05:12;;;;;;;34.70;22.02;;;2.20;88.50;;;;;;5019751;28;20038;-58
2021/01/24 07:07:42;;;;;;;34.55;21.60;;;2.10;88.70;;;;;;5034276;28;20481;-58
2021/01/24 07:10:10;;;;;;;36.78;22.83;;;2.00;89.10;;;;;;5052548;28;20047;-58
2021/01/24 07:12:43;;;;;;;32.35;21.35;;;2.10;89.30;;;;;;5052350;28;20037;-57
2021/01/24 07:15:11;;;;;;;37.90;22.08;;;2.10;89.10;;;;;;5052123;28;20418;-56
2021/01/24 07:17:37;;;;;;;35.72;22.70;;;2.10;89.30;;;;;;5052545;28;20047;-57
2021/01/24 07:20:07;;;;;;;36.53;23.02;;;2.10;89.40;;;;;;5052379;28;20072;-60
2021/01/24 07:22:33;;;;;;;37.40;22.38;;;2.10;89.30;;;;;;5052347;28;20114;-60
2021/01/24 07:24:59;;;;;;;36.80;22.58;;;2.10;89.70;;;;;;5051721;28;20036;-58
2021/01/24 07:27:29;;;;;;;38.17;24.90;;;2.10;89.80;;;;;;5052503;28;20028;-58
2021/01/24 07:29:56;;;;;;;38.05;23.63;;;2.10;89.60;;;;;;5051954;28;20032;-59
2021/01/24 07:32:24;;;;;;;32.88;21.30;;;2.10;89.50;;;;;;5052199;28;20040;-54
2021/01/24 07:34:51;;;;;;;34.47;21.83;;;2.10;89.80;;;;;;5051956;28;20112;-59
2021/01/24 07:37:17;;;;;;;37.75;23.08;;;2.10;89.40;;;;;;5053247;28;20112;-59
2021/01/24 07:39:51;;;;;;;36.63;23.08;;;2.10;89.50;;;;;;5054047;28;20499;-60
2021/01/24 07:42:17;;;;;;;32.90;21.42;;;2.00;89.70;;;;;;5053493;28;20098;-57
2021/01/24 07:44:44;;;;;;;43.63;26.40;;;2.00;89.80;;;;;;5051306;28;20033;-59
2021/01/24 07:47:10;;;;;;;39.58;23.98;;;2.10;89.70;;;;;;5051966;28;20037;-57
2021/01/24 07:49:36;;;;;;;39.10;24.25;;;2.00;90.00;;;;;;5051343;28;20121;-58
2021/01/24 07:52:07;;;;;;;36.75;23.33;;;2.00;90.10;;;;;;5033588;28;20116;-57
2021/01/24 07:54:34;;;;;;;36.33;22.67;;;1.90;90.20;;;;;;5026570;28;20047;-57
2021/01/24 07:57:00;;;;;;;37.08;23.02;;;2.00;90.10;;;;;;5051619;28;20135;-56
2021/01/24 07:59:26;;;;;;;38.80;25.25;;;2.00;90.10;;;;;;5051287;28;20078;-58
2021/01/24 08:01:53;;;;;;;35.63;23.90;;;2.00;90.10;;;;;;5051299;28;20456;-61
2021/01/24 08:04:23;;;;;;;38.15;23.52;;;2.00;90.30;;;;;;5051200;28;20048;-60
2021/01/24 08:06:49;;;;;;;46.70;28.63;;;2.10;90.30;;;;;;5051291;28;20553;-61
2021/01/24 08:09:16;;;;;;;36.28;22.38;;;2.00;90.40;;;;;;5051088;28;20495;-60
2021/01/24 08:11:42;;;;;;;37.67;25.33;;;2.00;90.20;;;;;;5051164;28;20111;-57
2021/01/24 08:14:07;;;;;;;41.05;23.92;;;2.00;90.40;;;;;;5051863;28;20064;-59
2021/01/24 08:16:38;;;;;;;38.78;23.23;;;2.00;90.20;;;;;;5051391;28;20039;-58
2021/01/24 08:19:06;;;;;;;39.70;25.20;;;2.10;90.10;;;;;;5034560;28;20381;-58
2021/01/24 08:21:33;;;;;;;41.15;25.08;;;2.10;90.20;;;;;;5035839;28;20432;-60
2021/01/24 08:24:01;;;;;;;40.88;24.88;;;2.00;90.40;;;;;;5054704;28;20116;-60
2021/01/24 08:26:27;;;;;;;41.72;25.88;;;2.00;90.10;;;;;;5052980;28;20033;-60
2021/01/24 08:28:53;;;;;;;41.28;24.63;;;2.00;90.00;;;;;;5034512;28;20114;-61
2021/01/24 08:31:20;;;;;;;41.17;25.48;;;2.00;90.20;;;;;;5052783;28;20053;-59
2021/01/24 08:33:54;;;;;;;40.45;24.70;;;2.00;90.10;;;;;;5052704;28;20048;-60
2021/01/24 08:36:21;;;;;;;42.50;25.00;;;2.00;90.30;;;;;;5053165;28;20453;-61
2021/01/24 08:38:48;;;;;;;39.13;23.33;;;1.90;90.30;;;;;;5051358;28;20037;-59
2021/01/24 08:41:16;;;;;;;40.72;24.58;;;1.90;90.20;;;;;;5051080;28;20044;-59
2021/01/24 08:43:42;;;;;;;39.40;24.70;;;2.00;90.20;;;;;;5050846;28;20056;-57
2021/01/24 08:46:25;;;;;;;40.85;24.52;;;1.90;90.30;;;;;;5051036;28;20075;-60
2021/01/24 08:49:11;;;;;;;38.50;23.73;;;2.00;90.30;;;;;;5050971;28;20037;-60
2021/01/24 08:51:50;;;;;;;43.42;24.60;;;2.00;90.10;;;;;;5051182;28;20041;-60
2021/01/24 08:54:24;;;;;;;36.72;22.50;;;2.10;90.10;;;;;;5053464;28;20032;-58
2021/01/24 08:56:50;;;;;;;34.55;21.70;;;2.10;90.00;;;;;;5054368;28;20049;-59
2021/01/24 08:59:25;;;;;;;39.42;23.50;;;2.10;89.80;;;;;;5054485;28;20052;-59
2021/01/24 09:01:53;;;;;;;96.65;47.92;;;2.00;90.10;;;;;;5054471;28;20769;-59
2021/01/24 09:04:21;;;;;;;49.20;26.80;;;2.10;90.20;;;;;;5054448;28;20064;-59
2021/01/24 09:07:02;;;;;;;43.25;26.60;;;2.10;90.20;;;;;;5054392;28;20102;-58
2021/01/24 09:09:28;;;;;;;45.83;25.85;;;2.20;90.40;;;;;;5054136;28;20037;-59
2021/01/24 09:11:54;;;;;;;37.83;22.67;;;2.20;90.50;;;;;;5054211;28;20041;-58
2021/01/24 09:14:20;;;;;;;35.45;21.95;;;2.30;90.50;;;;;;5054086;28;20025;-56
2021/01/24 09:16:55;;;;;;;37.10;22.58;;;2.30;90.10;;;;;;5054599;28;20033;-56
2021/01/24 09:19:20;;;;;;;;;;;2.40;90.00;;;;;;5054713;28;20063;-59
2021/01/24 09:21:46;;;;;;;37.47;20.13;;;2.40;89.60;;;;;;5055044;28;19908;-60
2021/01/24 09:24:11;;;;;;;37.15;22.73;;;2.40;89.70;;;;;;5054143;28;20075;-61
2021/01/24 09:26:37;;;;;;;37.42;21.30;;;2.40;89.90;;;;;;5054650;28;20044;-61
2021/01/24 09:29:03;;;;;;;65.22;34.28;;;2.40;90.00;;;;;;5035942;28;20037;-61
2021/01/24 09:31:28;;;;;;;48.17;25.05;;;2.30;90.00;;;;;;5045754;28;20033;-61
2021/01/24 09:33:54;;;;;;;39.47;24.23;;;2.40;90.00;;;;;;5036146;28;20037;-60
2021/01/24 09:36:19;;;;;;;37.13;22.55;;;2.40;90.00;;;;;;5054019;28;20032;-60
2021/01/24 09:38:45;;;;;;;35.67;20.95;;;2.50;90.00;;;;;;5053588;28;20029;-61
2021/01/24 09:41:10;;;;;;;31.60;20.15;;;2.40;90.00;;;;;;5053942;28;20044;-59
2021/01/24 09:43:36;;;;;;;32.58;20.02;;;2.40;90.00;;;;;;5053583;28;20032;-61
2021/01/24 09:46:02;;;;;;;29.42;19.25;;;2.40;90.00;;;;;;5053681;28;20082;-61
2021/01/24 09:48:27;;;;;;;32.78;20.02;;;2.40;89.90;;;;;;5053726;28;20037;-61
2021/01/24 09:50:53;;;;;;;28.65;18.70;;;2.50;90.10;;;;;;5044634;28;20080;-61
2021/01/24 09:53:19;;;;;;;31.67;18.55;;;2.50;90.00;;;;;;5034121;28;20034;-60
2021/01/24 09:55:44;;;;;;;34.33;20.08;;;2.60;89.90;;;;;;5048878;28;20040;-60
2021/01/24 09:58:10;;;;;;;35.05;20.65;;;2.50;89.90;;;;;;5053771;28;20033;-60
2021/01/24 10:00:35;;;;;;;33.92;20.38;;;2.60;89.90;;;;;;5053682;28;20118;-59
2021/01/24 10:03:01;;;;;;;31.88;19.77;;;2.50;89.80;;;;;;5053266;28;20045;-62
2021/01/24 10:05:26;;;;;;;32.10;19.63;;;2.50;90.00;;;;;;5052506;28;20035;-61
2021/01/24 10:07:52;;;;;;;31.52;20.23;;;2.60;90.10;;;;;;5053809;28;20067;-61
2021/01/24 10:10:17;;;;;;;30.52;18.10;;;2.70;89.90;;;;;;5035054;28;20029;-58
2021/01/24 10:12:43;;;;;;;31.70;18.67;;;2.80;89.50;;;;;;5049592;28;20106;-61
2021/01/24 10:15:10;;;;;;;30.23;17.95;;;2.80;89.20;;;;;;5052931;28;20037;-60
2021/01/24 10:17:35;;;;;;;29.80;18.38;;;2.80;89.30;;;;;;5053176;28;20025;-60
2021/01/24 10:20:01;;;;;;;29.58;18.25;;;2.90;89.30;;;;;;5052891;28;20079;-61
2021/01/24 10:22:26;;;;;;;29.92;19.52;;;3.00;88.90;;;;;;5053161;28;20084;-60
2021/01/24 10:24:52;;;;;;;30.77;18.95;;;3.00;88.90;;;;;;5052765;28;20365;-61
2021/01/24 10:27:18;;;;;;;90.57;44.67;;;3.00;88.90;;;;;;5053358;28;20037;-62
2021/01/24 10:29:43;;;;;;;36.42;21.65;;;3.00;88.50;;;;;;5052697;28;20048;-62
2021/01/24 10:32:09;;;;;;;28.17;18.60;;;3.00;88.80;;;;;;5053245;28;20051;-62
2021/01/24 10:34:34;;;;;;;29.92;18.85;;;3.20;88.60;;;;;;5035223;28;20033;-64
2021/01/24 10:37:00;;;;;;;28.55;18.15;;;3.20;88.20;;;;;;5052355;28;20051;-64
2021/01/24 10:39:25;;;;;;;25.40;16.48;;;3.20;87.90;;;;;;5052962;28;20025;-63
2021/01/24 10:41:51;;;;;;;25.20;16.98;;;3.20;88.40;;;;;;5035350;28;20075;-64
2021/01/24 10:44:17;;;;;;;28.92;17.10;;;3.30;88.10;;;;;;5053053;28;20036;-65
2021/01/24 10:46:42;;;;;;;28.85;17.60;;;3.30;87.80;;;;;;5052759;28;20036;-65
2021/01/24 10:49:10;;;;;;;26.00;18.13;;;3.20;88.60;;;;;;5035200;28;20033;-64
2021/01/24 10:51:36;;;;;;;26.75;18.13;;;3.30;87.80;;;;;;5052668;28;20501;-64
2021/01/24 10:54:02;;;;;;;30.90;19.40;;;3.30;88.10;;;;;;5034723;28;20135;-64
2021/01/24 10:56:27;;;;;;;24.27;16.92;;;3.30;88.00;;;;;;5052046;28;20041;-65
2021/01/24 10:58:53;;;;;;;31.98;18.92;;;3.20;88.50;;;;;;5052288;28;20036;-64
2021/01/24 11:01:19;;;;;;;29.05;18.63;;;3.20;88.10;;;;;;5043174;28;20244;-65
2021/01/24 11:03:44;;;;;;;32.25;18.90;;;3.10;88.70;;;;;;5034104;28;20033;-63
2021/01/24 11:06:10;;;;;;;29.90;19.30;;;3.10;88.90;;;;;;5051448;28;20037;-65
2021/01/24 11:08:35;;;;;;;27.08;18.23;;;3.10;88.80;;;;;;5052850;28;20033;-65
2021/01/24 11:11:01;;;;;;;26.30;18.30;;;3.20;89.00;;;;;;5034825;28;20043;-65
2021/01/24 11:13:26;;;;;;;28.60;19.05;;;3.20;88.70;;;;;;5053272;28;20074;-65
2021/01/24 11:15:52;;;;;;;27.20;17.45;;;3.20;88.50;;;;;;5051263;28;20090;-66
2021/01/24 11:18:18;;;;;;;27.98;18.00;;;3.20;88.50;;;;;;5052514;28;20045;-64
2021/01/24 11:20:43;;;;;;;26.65;17.75;;;3.30;88.50;;;;;;5051973;28;20427;-63
2021/01/24 11:23:11;;;;;;;25.92;18.10;;;3.30;88.20;;;;;;5052752;28;20111;-64
2021/01/24 11:25:38;;;;;;;26.20;18.20;;;3.30;88.20;;;;;;5034483;28;20086;-63
2021/01/24 11:28:06;;;;;;;27.17;17.85;;;3.30;88.00;;;;;;5049127;28;20033;-63
2021/01/24 11:30:31;;;;;;;29.15;19.38;;;3.30;88.00;;;;;;5051856;28;20391;-63
2021/01/24 11:32:57;;;;;;;24.77;16.88;;;3.30;88.20;;;;;;5052190;28;20032;-63
2021/01/24 11:35:24;;;;;;;35.63;18.63;;;3.30;88.20;;;;;;5051533;28;20036;-62
2021/01/24 11:37:50;;;;;;;29.65;20.30;;;3.30;87.00;;;;;;5049733;28;20112;-67
2021/01/24 11:40:15;;;;;;;36.05;21.08;;;3.30;88.30;;;;;;5051979;28;20038;-61
2021/01/24 11:42:41;;;;;;;27.60;17.58;;;3.10;89.40;;;;;;5051359;28;20574;-62
2021/01/24 11:45:07;;;;;;;28.17;18.45;;;3.20;89.50;;;;;;5051335;28;20446;-62
2021/01/24 11:47:34;;;;;;;28.23;17.92;;;3.20;88.70;;;;;;5051931;28;20040;-62
2021/01/24 11:50:00;;;;;;;28.88;18.83;;;3.20;88.50;;;;;;5050474;28;20127;-61
2021/01/24 11:52:26;;;;;;;28.08;18.33;;;3.10;88.90;;;;;;5042127;28;20124;-64
2021/01/24 11:54:51;;;;;;;27.98;17.48;;;3.00;89.60;;;;;;5044730;28;20041;-63
2021/01/24 11:57:17;;;;;;;32.92;20.63;;;2.90;89.60;;;;;;5053367;28;20115;-61
2021/01/24 11:59:43;;;;;;;27.00;18.65;;;2.90;89.80;;;;;;5043021;28;20079;-59
2021/01/24 12:02:11;;;;;;;29.10;19.48;;;2.90;89.70;;;;;;5025541;28;20032;-62
2021/01/24 12:04:36;;;;;;;28.52;18.45;;;2.90;89.80;;;;;;5050396;28;20037;-61
2021/01/24 12:07:02;;;;;;;28.13;18.50;;;2.90;89.40;;;;;;5045538;28;20504;-61
2021/01/24 12:09:28;;;;;;;30.35;19.35;;;2.90;89.90;;;;;;5041055;28;20182;-60
2021/01/24 12:11:53;;;;;;;28.95;18.50;;;2.90;89.70;;;;;;5038630;28;20360;-63
2021/01/24 12:14:19;;;;;;;33.65;20.27;;;2.90;89.80;;;;;;5049210;28;20033;-62
2021/01/24 12:16:44;;;;;;;29.38;18.90;;;2.90;89.60;;;;;;5031956;28;20396;-62
2021/01/24 12:19:10;;;;;;;32.95;20.08;;;2.80;89.60;;;;;;5040215;28;20037;-61
2021/01/24 12:21:36;;;;;;;33.08;19.73;;;2.80;90.00;;;;;;5045765;28;20037;-62
2021/01/24 12:24:02;;;;;;;29.58;19.15;;;2.80;90.20;;;;;;5038350;28;20111;-61
2021/01/24 12:26:29;;;;;;;33.97;20.38;;;2.80;90.30;;;;;;5032922;28;20025;-62
2021/01/24 12:28:54;;;;;;;34.28;19.73;;;2.80;90.00;;;;;;5026893;28;20099;-61
2021/01/24 12:31:20;;;;;;;29.98;18.90;;;2.90;89.70;;;;;;5046077;28;20033;-60
2021/01/24 12:33:45;;;;;;;34.22;19.65;;;2.90;89.90;;;;;;5033030;28;20040;-61
2021/01/24 12:36:11;;;;;;;31.75;20.45;;;2.90;89.40;;;;;;5044280;28;20101;-62
2021/01/24 12:38:37;;;;;;;31.67;20.25;;;2.80;89.60;;;;;;5050601;28;20029;-62
2021/01/24 12:41:02;;;;;;;30.38;19.00;;;2.80;90.00;;;;;;5051401;28;20036;-62